Карточка аэропорта URSS

Внимание!
Информация на этой странице в стадии наполнения.
Если вы не увидели какой-то информации, или заметили неточность - пожалуйста сообщите нам!
Спасибо!
Команда RU-STAFF
Название аэропортаСочи
Название аэропорта (англ.)Sochi
Превышение89 ft. (27.1 m.)
Координаты43°26.634', 39°56.55'
Высота перехода13000 ft
Эшелон переходаQNH>=977hPa: FL150; QNH<977hPa: FL160
Коды ответчика1060-1077
Зона ОрВДРостов-на-Дону РПИ (URRV)
Данные METARURSS 222330Z 05002MPS 9999 SCT060 OVC073 07/04 Q1023 R02/010070 R06/010070 NOSIG RMK R06/10003MPS QFE766
Проноз погоды (TAF)URSS 221957Z 2221/2321 05003G08MPS 9999 SCT009 BKN030CB OVC100 TEMPO 2221/2307 VRB06G11MPS 2100 -TSRA BR BKN006 BKN030CB OVC100 BECMG 2307/2308 15005G10MPS BKN025CB OVC100 BECMG 2310/2312 18004G09MPS SCT030 BKN100 BECMG 2314/2315 05003G08MPS SCT100
NOTAMshow/hide NOTAM
AWOS   TABLE

Информация о ВПП

ВПП Длина ВПП (м.) Покрытие Курс ВПП Частота ILS
062890Цементобетон58111.1
022500Цементобетон22110.5
242890Цементобетон238 
202500Цементобетон202 

Диспетчерские позиции

Позывной Наименование органа УВД Частота
URSS_GNDСочи-Руление119.000
URSS_FM1119.000
URSS_R_APPСочи-Круг119.700
URSS_TWRСочи-Старт121.200
URSS_APPСочи-Подход124.600
URSS_DELСочи-Деливери132.700



Спутниковое изображение